Suula — OJKZ — position and weather

sailwx.info

Track history (hours):
 
Tides and Currents Weather Stations Pressure Air Temp Water Temp Dewpoint Dewpoint Depression Visibility Wind Speed Wind Dir Waves Ship Positions

Suula

Last reported at 2017-Jul-22 08:29 UTC. Time now 2017-Jul-22 08:46 UTC.
Position N 59°19' E 018°10'.

Length 140 m; draft 6.5 m.

Type: Tanker. MMSI: 230956996.

Date/timePositionNaut miles runAvg speedWind from/ knotsBaromVisibWave heightAir tempDewpointWater temp
2017-Jul-22 08:29N 59°19' E 018°10'0 0.0
2017-Jul-22 07:59N 59°19' E 018°10'0 0.0
2017-Jul-22 07:29N 59°19' E 018°10'0 0.0
2017-Jul-22 06:53N 59°19' E 018°10'0 0.0
2017-Jul-22 06:29N 59°19' E 018°10'0 0.0
2017-Jul-22 05:53N 59°19' E 018°10'0 0.0
2017-Jul-22 05:29N 59°19' E 018°10'0 0.0
2017-Jul-22 04:59N 59°19' E 018°10'0 0.0
2017-Jul-22 04:29N 59°19' E 018°10'0 0.0
2017-Jul-22 03:59N 59°19' E 018°10'0 0.0
2017-Jul-22 03:29N 59°19' E 018°10'0 0.0
2017-Jul-22 02:59N 59°19' E 018°10'0 0.0
2017-Jul-22 02:29N 59°19' E 018°10'0 0.0
2017-Jul-22 01:59N 59°19' E 018°10'0 0.0
2017-Jul-22 01:29N 59°19' E 018°10'0 0.0
2017-Jul-22 00:59N 59°19' E 018°10'0 0.0
2017-Jul-22 00:29N 59°19' E 018°10'0 0.0
2017-Jul-21 23:56N 59°19' E 018°10'0 0.0
2017-Jul-21 23:29N 59°19' E 018°10'1 1.1
2017-Jul-21 23:00N 59°20' E 018°11'5 9.5
2017-Jul-21 22:31N 59°23' E 018°18'5 9.1
2017-Jul-21 22:00N 59°22' E 018°27'5 9.4
2017-Jul-21 21:31N 59°26' E 018°24'611.2
2017-Jul-21 21:00N 59°24' E 018°33'611.5
2017-Jul-21 20:31N 59°22' E 018°44'612.8
2017-Jul-21 20:00N 59°18' E 018°53'611.4
2017-Jul-21 19:30N 59°15' E 019°02'2 3.9
2017-Jul-21 18:58N 59°14' E 019°06'1 3.0
2017-Jul-21 18:29N 59°13' E 019°09'714.5
2017-Jul-21 18:00N 59°14' E 019°22'815.4
2017-Jul-21 17:31N 59°15' E 019°37'815.2
2017-Jul-21 17:01N 59°16' E 019°52'815.3
2017-Jul-21 16:31N 59°17' E 020°06'815.0
2017-Jul-21 16:01N 59°19' E 020°21'815.2
2017-Jul-21 15:30N 59°20' E 020°36'815.3
2017-Jul-21 15:00N 59°21' E 020°51'815.2
2017-Jul-21 14:31N 59°22' E 021°05'815.2
2017-Jul-21 14:00N 59°23' E 021°20'815.2
2017-Jul-21 13:31N 59°25' E 021°35'815.0
2017-Jul-21 13:01N 59°26' E 021°49'815.1
2017-Jul-21 12:31N 59°27' E 022°04'815.1
2017-Jul-21 12:00N 59°28' E 022°19'815.2
2017-Jul-21 11:31N 59°32' E 022°32'815.2
2017-Jul-21 11:00N 59°34' E 022°46'815.1
2017-Jul-21 10:30N 59°36' E 023°01'815.1
2017-Jul-21 10:01N 59°38' E 023°15'815.1
2017-Jul-21 09:30N 59°40' E 023°30'815.1
2017-Jul-21 09:00N 59°42' E 023°44'815.2
2017-Jul-21 08:30N 59°44' E 023°58'815.2
2017-Jul-21 08:00N 59°46' E 024°13'815.0
2017-Jul-21 07:31N 59°48' E 024°27'715.0
2017-Jul-21 07:01N 59°50' E 024°42'815.1
2017-Jul-21 06:31N 59°51' E 024°57'815.2
2017-Jul-21 06:00N 59°53' E 025°11'815.1
2017-Jul-21 05:31N 59°57' E 025°24'714.3
2017-Jul-21 05:01N 60°02' E 025°34'714.4
2017-Jul-21 04:30N 60°09' E 025°35'714.2
2017-Jul-21 04:00N 60°17' E 025°33'2 4.1
2017-Jul-21 03:30N 60°19' E 025°33'0 0.0
2017-Jul-21 03:00N 60°19' E 025°33'0 0.0
2017-Jul-21 02:30N 60°19' E 025°33'0 0.0
2017-Jul-21 02:00N 60°19' E 025°33'0 0.0
2017-Jul-21 01:30N 60°19' E 025°33'0 0.0
2017-Jul-21 01:00N 60°19' E 025°33'0 0.0
2017-Jul-21 00:30N 60°19' E 025°33'0 0.0
2017-Jul-21 00:00N 60°19' E 025°33'0 0.0
2017-Jul-20 23:30N 60°19' E 025°33'0 0.0
2017-Jul-20 23:00N 60°19' E 025°33'0 0.0
2017-Jul-20 22:30N 60°19' E 025°33'0 0.0
2017-Jul-20 22:00N 60°19' E 025°33'0 0.0
2017-Jul-20 21:30N 60°19' E 025°33'0 0.0
2017-Jul-20 20:56N 60°19' E 025°33'0 0.0
2017-Jul-20 20:29N 60°19' E 025°33'0 0.0
2017-Jul-20 20:00N 60°19' E 025°33'0 0.0
2017-Jul-20 19:27N 60°19' E 025°33'0 0.0
2017-Jul-20 19:00N 60°19' E 025°33'0 0.0
2017-Jul-20 18:30N 60°19' E 025°33'0 0.0
2017-Jul-20 18:00N 60°19' E 025°33'0 0.0
2017-Jul-20 17:27N 60°19' E 025°33'0 0.0
2017-Jul-20 17:00N 60°19' E 025°33'0 0.0
2017-Jul-20 16:28N 60°19' E 025°33'0 0.0
2017-Jul-20 15:57N 60°19' E 025°33'0 0.0
2017-Jul-20 15:30N 60°19' E 025°33'0 0.0
2017-Jul-20 15:00N 60°19' E 025°33'0 0.0
2017-Jul-20 14:00N 60°19' E 025°33'0 0.0
2017-Jul-20 13:30N 60°19' E 025°33'0 0.0
2017-Jul-20 13:00N 60°19' E 025°33'0 0.0
2017-Jul-20 12:27N 60°19' E 025°33'0 0.0
2017-Jul-20 12:00N 60°19' E 025°33'0 0.0
2017-Jul-20 11:30N 60°19' E 025°33'0 0.0
2017-Jul-20 11:00N 60°19' E 025°33'1 1.5
2017-Jul-20 10:30N 60°18' E 025°33'4 8.6
2017-Jul-20 10:00N 60°14' E 025°35'611.1
2017-Jul-20 09:31N 60°08' E 025°35'611.2
2017-Jul-20 09:01N 60°03' E 025°34'510.9
2017-Jul-20 08:31N 59°58' E 025°29'611.6
2017-Jul-20 08:01N 59°54' E 025°21'611.7
2017-Jul-20 07:31N 59°50' E 025°12'611.8
2017-Jul-20 07:01N 59°48' E 025°01'611.7
2017-Jul-20 06:31N 59°47' E 024°50'611.4
2017-Jul-20 06:01N 59°45' E 024°39'611.4
2017-Jul-20 05:31N 59°44' E 024°28'611.2
2017-Jul-20 05:01N 59°43' E 024°17'611.3
2017-Jul-20 04:31N 59°41' E 024°06'611.4
2017-Jul-20 04:01N 59°40' E 023°55'611.4
2017-Jul-20 03:31N 59°38' E 023°44'611.4
2017-Jul-20 03:01N 59°36' E 023°34'611.5
2017-Jul-20 02:30N 59°34' E 023°23'611.7
2017-Jul-20 02:00N 59°32' E 023°12'611.6
2017-Jul-20 01:30N 59°31' E 023°01'611.7
2017-Jul-20 01:00N 59°29' E 022°50'611.4
2017-Jul-20 00:31N 59°27' E 022°40'611.2
2017-Jul-20 00:01N 59°24' E 022°30'611.3
2017-Jul-19 23:31N 59°21' E 022°21'611.3
2017-Jul-19 23:01N 59°17' E 022°13'611.4
2017-Jul-19 22:31N 59°13' E 022°04'611.7
2017-Jul-19 22:01N 59°10' E 021°55'611.5
2017-Jul-19 21:31N 59°06' E 021°47'611.7
2017-Jul-19 21:00N 59°01' E 021°39'611.7
2017-Jul-19 20:28N 58°56' E 021°35'511.3
2017-Jul-19 20:00N 58°51' E 021°32'  
2017-Jul-17 15:45N 58°20' E 021°17'2512.0
2017-Jul-17 13:39N 58°45' E 021°26'611.8
2017-Jul-17 13:08N 58°51' E 021°28'311.8
2017-Jul-17 12:55N 58°53' E 021°30'512.0
2017-Jul-17 12:30N 58°58' E 021°31'612.0
2017-Jul-17 12:00N 59°04' E 021°34'612.0
2017-Jul-17 11:30N 59°09' E 021°41'612.0
2017-Jul-17 11:00N 59°13' E 021°50'611.8
2017-Jul-17 10:30N 59°17' E 021°59'611.7
2017-Jul-17 10:00N 59°20' E 022°07'611.7
2017-Jul-17 09:30N 59°24' E 022°16'611.9
2017-Jul-17 09:00N 59°28' E 022°26'611.8
2017-Jul-17 08:30N 59°30' E 022°36'612.0
2017-Jul-17 08:00N 59°33' E 022°47'612.2
2017-Jul-17 07:30N 59°34' E 022°58'612.1
2017-Jul-17 07:01N 59°36' E 023°10'611.9
2017-Jul-17 06:30N 59°38' E 023°21'611.8
2017-Jul-17 06:01N 59°40' E 023°32'612.0
2017-Jul-17 05:30N 59°42' E 023°44'612.0
2017-Jul-17 05:00N 59°43' E 023°55'612.1
2017-Jul-17 04:30N 59°45' E 024°06'611.8
2017-Jul-17 04:00N 59°47' E 024°18'611.8
2017-Jul-17 03:30N 59°48' E 024°29'611.8
2017-Jul-17 03:00N 59°50' E 024°40'611.7
2017-Jul-17 02:30N 59°51' E 024°52'611.8
2017-Jul-17 02:00N 59°52' E 025°03'611.7
2017-Jul-17 01:30N 59°54' E 025°14'611.8
2017-Jul-17 01:00N 59°57' E 025°24'611.4
2017-Jul-17 00:30N 60°01' E 025°33'611.5
2017-Jul-17 00:01N 60°07' E 025°35'815.3
2017-Jul-16 23:30N 60°14' E 025°35'4 7.5
2017-Jul-16 23:00N 60°18' E 025°33'0 0.0
2017-Jul-16 22:30N 60°18' E 025°33'0 0.0
2017-Jul-16 22:00N 60°18' E 025°33'0 0.0
2017-Jul-16 21:30N 60°18' E 025°33'0 0.0
2017-Jul-16 20:58N 60°18' E 025°33'0 0.0
2017-Jul-16 20:29N 60°18' E 025°33'0 0.0
2017-Jul-16 19:59N 60°18' E 025°33'0 0.0
2017-Jul-16 19:30N 60°18' E 025°33'0 0.0
2017-Jul-16 18:56N 60°18' E 025°33'0 0.0
2017-Jul-16 18:29N 60°18' E 025°33'0 0.0
2017-Jul-16 17:59N 60°18' E 025°33'0 0.0
2017-Jul-16 17:29N 60°18' E 025°33'0 0.0
2017-Jul-16 16:59N 60°18' E 025°33'0 0.0
2017-Jul-16 16:29N 60°18' E 025°33'0 0.0
2017-Jul-16 15:59N 60°18' E 025°33'0 0.0
2017-Jul-16 15:30N 60°18' E 025°33'0 0.0
2017-Jul-16 14:59N 60°18' E 025°33'0 0.0
2017-Jul-16 14:30N 60°18' E 025°33'0 0.0
2017-Jul-16 13:58N 60°18' E 025°33'0 0.0
2017-Jul-16 13:29N 60°18' E 025°33'0 0.0
2017-Jul-16 12:58N 60°18' E 025°33'0 0.0
2017-Jul-16 12:27N 60°18' E 025°33'0 0.0
2017-Jul-16 12:00N 60°18' E 025°33'0 0.0
2017-Jul-16 11:28N 60°18' E 025°33'0 0.0
2017-Jul-16 11:00N 60°18' E 025°33'0 0.0
2017-Jul-16 10:30N 60°18' E 025°33'0 0.0
2017-Jul-16 10:00N 60°18' E 025°33'0 0.0
2017-Jul-16 09:26N 60°18' E 025°33'0 0.0
2017-Jul-16 08:58N 60°18' E 025°33'0 0.0
2017-Jul-16 08:29N 60°18' E 025°33'0 0.0
2017-Jul-16 08:00N 60°18' E 025°33'0 0.0
2017-Jul-16 07:26N 60°18' E 025°33'0 0.0
2017-Jul-16 06:59N 60°18' E 025°33'1 1.1
2017-Jul-16 06:31N 60°18' E 025°33'713.5
2017-Jul-16 06:00N 60°11' E 025°37'713.4
2017-Jul-16 05:30N 60°05' E 025°36'2 3.4
2017-Jul-16 05:01N 60°06' E 025°35'714.6
2017-Jul-16 04:30N 60°14' E 025°35'4 8.0
2017-Jul-16 04:01N 60°18' E 025°33'1 1.5
2017-Jul-16 03:31N 60°18' E 025°33'0 0.0
2017-Jul-16 02:59N 60°18' E 025°33'0 0.0
2017-Jul-16 02:30N 60°18' E 025°33'0 0.0
2017-Jul-16 02:00N 60°18' E 025°33'0 0.0
2017-Jul-16 01:29N 60°18' E 025°33'0 0.0
2017-Jul-16 00:59N 60°18' E 025°33'0 0.0
2017-Jul-16 00:27N 60°18' E 025°33'0 0.0
2017-Jul-16 00:00N 60°18' E 025°33'0 0.0
2017-Jul-15 23:30N 60°18' E 025°33'0 0.0
2017-Jul-15 23:00N 60°18' E 025°33'0 0.0
2017-Jul-15 22:29N 60°18' E 025°33'0 0.0
2017-Jul-15 21:58N 60°18' E 025°33'0 0.0
2017-Jul-15 21:27N 60°18' E 025°33'0 0.0
2017-Jul-15 20:58N 60°18' E 025°33'0 0.0
2017-Jul-15 20:29N 60°18' E 025°33'0 0.0
2017-Jul-15 19:56N 60°18' E 025°33'0 0.0
2017-Jul-15 19:30N 60°18' E 025°33'0 0.0
2017-Jul-15 18:58N 60°18' E 025°33'1 2.9
2017-Jul-15 18:31N 60°17' E 025°33'815.2
2017-Jul-15 18:00N 60°10' E 025°39'815.2
2017-Jul-15 17:30N 60°03' E 025°34'713.1
2017-Jul-15 17:00N 59°57' E 025°27'713.8
2017-Jul-15 16:30N 59°52' E 025°17'713.3
2017-Jul-15 16:00N 59°49' E 025°06'713.6
2017-Jul-15 15:30N 59°47' E 024°53'713.8
2017-Jul-15 15:01N 59°45' E 024°40'1413.9
2017-Jul-15 14:00N 59°42' E 024°13'713.8
2017-Jul-15 13:31N 59°40' E 024°00'714.0
2017-Jul-15 13:01N 59°38' E 023°47'713.9
2017-Jul-15 12:31N 59°36' E 023°34'713.8
2017-Jul-15 12:00N 59°33' E 023°21'713.8
2017-Jul-15 11:31N 59°31' E 023°08'713.9
2017-Jul-15 11:00N 59°29' E 022°55'713.9
2017-Jul-15 10:31N 59°27' E 022°42'713.9
2017-Jul-15 10:00N 59°24' E 022°29'612.9
2017-Jul-15 09:30N 59°24' E 022°17'713.9
2017-Jul-15 09:00N 59°27' E 022°04'713.8
2017-Jul-15 08:31N 59°30' E 021°52'714.0
2017-Jul-15 08:01N 59°32' E 021°39'713.8
2017-Jul-15 07:31N 59°37' E 021°28'713.4
2017-Jul-15 07:01N 59°42' E 021°21'713.7
2017-Jul-15 06:30N 59°49' E 021°21'815.1
2017-Jul-15 06:00N 59°54' E 021°33'714.5
2017-Jul-15 05:31N 59°60' E 021°42'815.1
2017-Jul-15 05:01N 60°07' E 021°41'713.1
2017-Jul-15 04:31N 60°13' E 021°43'714.9
2017-Jul-15 04:00N 60°16' E 021°57'714.4
2017-Jul-15 03:31N 60°22' E 022°06'510.2
2017-Jul-15 03:00N 60°27' E 022°04'0 0.0
2017-Jul-15 02:28N 60°27' E 022°04'0 0.0
2017-Jul-15 01:58N 60°27' E 022°04'0 0.0
2017-Jul-15 01:28N 60°27' E 022°04'0 0.0
2017-Jul-15 00:58N 60°27' E 022°04'0 0.0
2017-Jul-15 00:28N 60°27' E 022°04'0 0.0
2017-Jul-14 23:58N 60°27' E 022°04'0 0.0
2017-Jul-14 23:28N 60°27' E 022°04'0 0.0
2017-Jul-14 22:58N 60°27' E 022°04'0 0.0
2017-Jul-14 22:28N 60°27' E 022°04'0 0.0
2017-Jul-14 21:58N 60°27' E 022°04'0 0.0
2017-Jul-14 21:28N 60°27' E 022°04'0 0.0
2017-Jul-14 20:58N 60°27' E 022°04'0 0.0
2017-Jul-14 20:28N 60°27' E 022°04'0 0.0
2017-Jul-14 19:56N 60°27' E 022°04'0 0.0
2017-Jul-14 19:26N 60°27' E 022°04'0 0.0
2017-Jul-14 18:59N 60°27' E 022°04'0 0.0
2017-Jul-14 18:30N 60°27' E 022°04'0 0.0
2017-Jul-14 18:00N 60°27' E 022°04'0 0.0
2017-Jul-14 17:29N 60°27' E 022°04'0 0.0
2017-Jul-14 17:00N 60°27' E 022°04'0 0.0
2017-Jul-14 16:29N 60°27' E 022°04'0 0.0
2017-Jul-14 15:55N 60°27' E 022°04'0 0.0
2017-Jul-14 15:29N 60°27' E 022°04'0 0.0
2017-Jul-14 14:55N 60°27' E 022°04'0 0.0
2017-Jul-14 14:28N 60°27' E 022°04'0 0.0
2017-Jul-14 13:58N 60°27' E 022°04'0 0.0
2017-Jul-14 13:28N 60°27' E 022°04'0 0.0
2017-Jul-14 12:58N 60°27' E 022°04'0 0.0
2017-Jul-14 12:29N 60°27' E 022°04'0 0.0
2017-Jul-14 11:58N 60°27' E 022°04'0 0.0
2017-Jul-14 11:28N 60°27' E 022°04'0 0.0
2017-Jul-14 10:59N 60°27' E 022°04'0 0.0
2017-Jul-14 10:28N 60°27' E 022°04'0 0.0
2017-Jul-14 09:52N 60°27' E 022°04'0 0.1
2017-Jul-14 09:30N 60°27' E 022°04'0 1.0
2017-Jul-14 09:00N 60°27' E 022°05'5 9.4
2017-Jul-14 08:31N 60°22' E 022°06'713.7
2017-Jul-14 08:01N 60°16' E 021°58'714.8
2017-Jul-14 07:30N 60°14' E 021°44'611.0
2017-Jul-14 07:00N 60°09' E 021°41'713.5
2017-Jul-14 06:31N 60°02' E 021°41'713.4
2017-Jul-14 06:00N 59°55' E 021°38'714.6
2017-Jul-14 05:30N 59°51' E 021°26'612.8
2017-Jul-14 05:00N 59°46' E 021°21'5 9.8
2017-Jul-14 04:30N 59°41' E 021°19'5 9.5
2017-Jul-14 04:01N 59°37' E 021°13'510.3
2017-Jul-14 03:31N 59°34' E 021°04'5 9.9
2017-Jul-14 03:00N 59°33' E 020°55'510.3
2017-Jul-14 02:30N 59°33' E 020°45'4 8.9
2017-Jul-14 02:00N 59°29' E 020°42'4 8.0
2017-Jul-14 01:30N 59°26' E 020°36'510.6
2017-Jul-14 01:00N 59°27' E 020°26'4 8.8
2017-Jul-14 00:31N 59°27' E 020°17'5 9.7
2017-Jul-14 00:00N 59°22' E 020°17'510.3
2017-Jul-13 23:30N 59°22' E 020°07'510.3
2017-Jul-13 23:00N 59°23' E 019°57'5 9.1
2017-Jul-13 22:30N 59°22' E 019°48'5 9.9
2017-Jul-13 22:00N 59°17' E 019°45'5 9.6
2017-Jul-13 21:30N 59°17' E 019°36'5 9.9
2017-Jul-13 21:00N 59°17' E 019°26'510.2
2017-Jul-13 20:31N 59°15' E 019°17'4 8.7
2017-Jul-13 20:00N 59°11' E 019°12'3 2.7
2017-Jul-13 18:48N 59°12' E 019°06'0 0.6
2017-Jul-13 18:30N 59°11' E 019°06'0 0.7
2017-Jul-13 17:54N 59°11' E 019°07'0 0.8
2017-Jul-13 17:27N 59°12' E 019°08'0 0.6
2017-Jul-13 16:48N 59°12' E 019°08'0 0.6
2017-Jul-13 16:21N 59°12' E 019°08'0 0.7
2017-Jul-13 15:48N 59°12' E 019°08'1 0.8
2017-Jul-13 14:42N 59°13' E 019°08'0 0.9
2017-Jul-13 14:21N 59°14' E 019°08'0 0.6
2017-Jul-13 13:56N 59°14' E 019°08'2 4.8
2017-Jul-13 13:30N 59°14' E 019°04'6 9.7
2017-Jul-13 12:51N 59°18' E 018°53'511.4
2017-Jul-13 12:25N 59°21' E 018°46'811.1
2017-Jul-13 11:44N 59°24' E 018°32'312.6
2017-Jul-13 11:30N 59°26' E 018°29'3 5.2
2017-Jul-13 11:00N 59°24' E 018°27'3 6.5
2017-Jul-13 10:30N 59°22' E 018°22'611.6
2017-Jul-13 10:00N 59°20' E 018°11'1 2.4
2017-Jul-13 09:26N 59°21' E 018°08'0 0.0
2017-Jul-13 08:56N 59°21' E 018°08'0 0.0
2017-Jul-13 08:26N 59°21' E 018°08'0 0.0
2017-Jul-13 07:44N 59°21' E 018°08'0 0.0
2017-Jul-13 07:26N 59°21' E 018°08'0 0.0
2017-Jul-13 06:56N 59°21' E 018°08'0 0.0
2017-Jul-13 06:26N 59°21' E 018°08'0 0.0
2017-Jul-13 05:55N 59°21' E 018°08'0 0.0
2017-Jul-13 05:25N 59°21' E 018°08'0 0.0
2017-Jul-13 04:55N 59°21' E 018°08'0 0.0
2017-Jul-13 04:25N 59°21' E 018°08'0 0.0
2017-Jul-13 03:55N 59°21' E 018°08'0 0.0
2017-Jul-13 03:25N 59°21' E 018°08'0 0.0
2017-Jul-13 02:55N 59°21' E 018°08'0 0.0
2017-Jul-13 02:25N 59°21' E 018°08'0 0.0
2017-Jul-13 01:55N 59°21' E 018°08'0 0.0
2017-Jul-13 01:25N 59°21' E 018°08'0 0.0
2017-Jul-13 00:55N 59°21' E 018°08'0 0.0
2017-Jul-13 00:25N 59°21' E 018°08'0 0.0
2017-Jul-12 23:55N 59°21' E 018°08'0 0.0
2017-Jul-12 23:25N 59°21' E 018°08'0 0.0
2017-Jul-12 22:55N 59°21' E 018°08'0 0.0
2017-Jul-12 22:25N 59°21' E 018°08'0 0.0
2017-Jul-12 21:55N 59°21' E 018°08'0 0.0
2017-Jul-12 21:19N 59°21' E 018°08'0 0.0
2017-Jul-12 20:55N 59°21' E 018°08'0 0.0
2017-Jul-12 20:25N 59°21' E 018°08'0 0.0
2017-Jul-12 19:55N 59°21' E 018°08'0 0.0
2017-Jul-12 19:25N 59°21' E 018°08'0 0.0
2017-Jul-12 18:49N 59°21' E 018°08'0 0.0
2017-Jul-12 18:25N 59°21' E 018°08'0 0.0
2017-Jul-12 17:49N 59°21' E 018°08'0 0.0
2017-Jul-12 17:25N 59°21' E 018°08'0 0.0
2017-Jul-12 16:55N 59°21' E 018°08'0 0.0
2017-Jul-12 16:25N 59°21' E 018°08'0 0.0
2017-Jul-12 15:49N 59°21' E 018°08'0 0.1
2017-Jul-12 15:25N 59°21' E 018°08'0 0.0
2017-Jul-12 14:43N 59°21' E 018°08'0 0.0
2017-Jul-12 13:49N 59°21' E 018°08'0 0.0
2017-Jul-12 13:25N 59°21' E 018°08'0 0.0
2017-Jul-12 12:55N 59°21' E 018°08'0 0.0
2017-Jul-12 12:25N 59°21' E 018°08'0 0.0
2017-Jul-12 11:55N 59°21' E 018°08'0 0.0
2017-Jul-12 11:25N 59°21' E 018°08'0 0.0
2017-Jul-12 10:55N 59°21' E 018°08'0 0.0
2017-Jul-12 10:25N 59°21' E 018°08'0 0.0
2017-Jul-12 09:55N 59°21' E 018°08'0 0.0
2017-Jul-12 09:21N 59°21' E 018°08'0 0.1
2017-Jul-12 09:00N 59°21' E 018°08'2 4.3
2017-Jul-12 08:31N 59°20' E 018°12'  
Track history (hours):
 
Tides and Currents Weather Stations Pressure Air Temp Water Temp Dewpoint Dewpoint Depression Visibility Wind Speed Wind Dir Waves Ship Positions

Suula

Last reported at 2017-Jul-22 08:29 UTC. Time now 2017-Jul-22 08:46 UTC.
Position N 59°19' E 018°10'.

Length 140 m; draft 6.5 m.

Type: Tanker. MMSI: 230956996.

Date/timePositionNaut miles runAvg speedWind from/ knotsBaromVisibWave heightAir tempDewpointWater temp
2017-Jul-22 08:29N 59°19' E 018°10'0 0.0
2017-Jul-22 07:59N 59°19' E 018°10'0 0.0
2017-Jul-22 07:29N 59°19' E 018°10'0 0.0
2017-Jul-22 06:53N 59°19' E 018°10'0 0.0
2017-Jul-22 06:29N 59°19' E 018°10'0 0.0
2017-Jul-22 05:53N 59°19' E 018°10'0 0.0
2017-Jul-22 05:29N 59°19' E 018°10'0 0.0
2017-Jul-22 04:59N 59°19' E 018°10'0 0.0
2017-Jul-22 04:29N 59°19' E 018°10'0 0.0
2017-Jul-22 03:59N 59°19' E 018°10'0 0.0
2017-Jul-22 03:29N 59°19' E 018°10'0 0.0
2017-Jul-22 02:59N 59°19' E 018°10'0 0.0
2017-Jul-22 02:29N 59°19' E 018°10'0 0.0
2017-Jul-22 01:59N 59°19' E 018°10'0 0.0
2017-Jul-22 01:29N 59°19' E 018°10'0 0.0
2017-Jul-22 00:59N 59°19' E 018°10'0 0.0
2017-Jul-22 00:29N 59°19' E 018°10'0 0.0
2017-Jul-21 23:56N 59°19' E 018°10'0 0.0
2017-Jul-21 23:29N 59°19' E 018°10'1 1.1
2017-Jul-21 23:00N 59°20' E 018°11'5 9.5
2017-Jul-21 22:31N 59°23' E 018°18'5 9.1
2017-Jul-21 22:00N 59°22' E 018°27'5 9.4
2017-Jul-21 21:31N 59°26' E 018°24'611.2
2017-Jul-21 21:00N 59°24' E 018°33'611.5
2017-Jul-21 20:31N 59°22' E 018°44'612.8
2017-Jul-21 20:00N 59°18' E 018°53'611.4
2017-Jul-21 19:30N 59°15' E 019°02'2 3.9
2017-Jul-21 18:58N 59°14' E 019°06'1 3.0
2017-Jul-21 18:29N 59°13' E 019°09'714.5
2017-Jul-21 18:00N 59°14' E 019°22'815.4
2017-Jul-21 17:31N 59°15' E 019°37'815.2
2017-Jul-21 17:01N 59°16' E 019°52'815.3
2017-Jul-21 16:31N 59°17' E 020°06'815.0
2017-Jul-21 16:01N 59°19' E 020°21'815.2
2017-Jul-21 15:30N 59°20' E 020°36'815.3
2017-Jul-21 15:00N 59°21' E 020°51'815.2
2017-Jul-21 14:31N 59°22' E 021°05'815.2
2017-Jul-21 14:00N 59°23' E 021°20'815.2
2017-Jul-21 13:31N 59°25' E 021°35'815.0
2017-Jul-21 13:01N 59°26' E 021°49'815.1
2017-Jul-21 12:31N 59°27' E 022°04'815.1
2017-Jul-21 12:00N 59°28' E 022°19'815.2
2017-Jul-21 11:31N 59°32' E 022°32'815.2
2017-Jul-21 11:00N 59°34' E 022°46'815.1
2017-Jul-21 10:30N 59°36' E 023°01'815.1
2017-Jul-21 10:01N 59°38' E 023°15'815.1
2017-Jul-21 09:30N 59°40' E 023°30'815.1
2017-Jul-21 09:00N 59°42' E 023°44'815.2
2017-Jul-21 08:30N 59°44' E 023°58'815.2
2017-Jul-21 08:00N 59°46' E 024°13'815.0
2017-Jul-21 07:31N 59°48' E 024°27'715.0
2017-Jul-21 07:01N 59°50' E 024°42'815.1
2017-Jul-21 06:31N 59°51' E 024°57'815.2
2017-Jul-21 06:00N 59°53' E 025°11'815.1
2017-Jul-21 05:31N 59°57' E 025°24'714.3
2017-Jul-21 05:01N 60°02' E 025°34'714.4
2017-Jul-21 04:30N 60°09' E 025°35'714.2
2017-Jul-21 04:00N 60°17' E 025°33'2 4.1
2017-Jul-21 03:30N 60°19' E 025°33'0 0.0
2017-Jul-21 03:00N 60°19' E 025°33'0 0.0
2017-Jul-21 02:30N 60°19' E 025°33'0 0.0
2017-Jul-21 02:00N 60°19' E 025°33'0 0.0
2017-Jul-21 01:30N 60°19' E 025°33'0 0.0
2017-Jul-21 01:00N 60°19' E 025°33'0 0.0
2017-Jul-21 00:30N 60°19' E 025°33'0 0.0
2017-Jul-21 00:00N 60°19' E 025°33'0 0.0
2017-Jul-20 23:30N 60°19' E 025°33'0 0.0
2017-Jul-20 23:00N 60°19' E 025°33'0 0.0
2017-Jul-20 22:30N 60°19' E 025°33'0 0.0
2017-Jul-20 22:00N 60°19' E 025°33'0 0.0
2017-Jul-20 21:30N 60°19' E 025°33'0 0.0
2017-Jul-20 20:56N 60°19' E 025°33'0 0.0
2017-Jul-20 20:29N 60°19' E 025°33'0 0.0
2017-Jul-20 20:00N 60°19' E 025°33'0 0.0
2017-Jul-20 19:27N 60°19' E 025°33'0 0.0
2017-Jul-20 19:00N 60°19' E 025°33'0 0.0
2017-Jul-20 18:30N 60°19' E 025°33'0 0.0
2017-Jul-20 18:00N 60°19' E 025°33'0 0.0
2017-Jul-20 17:27N 60°19' E 025°33'0 0.0
2017-Jul-20 17:00N 60°19' E 025°33'0 0.0
2017-Jul-20 16:28N 60°19' E 025°33'0 0.0
2017-Jul-20 15:57N 60°19' E 025°33'0 0.0
2017-Jul-20 15:30N 60°19' E 025°33'0 0.0
2017-Jul-20 15:00N 60°19' E 025°33'0 0.0
2017-Jul-20 14:00N 60°19' E 025°33'0 0.0
2017-Jul-20 13:30N 60°19' E 025°33'0 0.0
2017-Jul-20 13:00N 60°19' E 025°33'0 0.0
2017-Jul-20 12:27N 60°19' E 025°33'0 0.0
2017-Jul-20 12:00N 60°19' E 025°33'0 0.0
2017-Jul-20 11:30N 60°19' E 025°33'0 0.0
2017-Jul-20 11:00N 60°19' E 025°33'1 1.5
2017-Jul-20 10:30N 60°18' E 025°33'4 8.6
2017-Jul-20 10:00N 60°14' E 025°35'611.1
2017-Jul-20 09:31N 60°08' E 025°35'611.2
2017-Jul-20 09:01N 60°03' E 025°34'510.9
2017-Jul-20 08:31N 59°58' E 025°29'611.6
2017-Jul-20 08:01N 59°54' E 025°21'611.7
2017-Jul-20 07:31N 59°50' E 025°12'611.8
2017-Jul-20 07:01N 59°48' E 025°01'611.7
2017-Jul-20 06:31N 59°47' E 024°50'611.4
2017-Jul-20 06:01N 59°45' E 024°39'611.4
2017-Jul-20 05:31N 59°44' E 024°28'611.2
2017-Jul-20 05:01N 59°43' E 024°17'611.3
2017-Jul-20 04:31N 59°41' E 024°06'611.4
2017-Jul-20 04:01N 59°40' E 023°55'611.4
2017-Jul-20 03:31N 59°38' E 023°44'611.4
2017-Jul-20 03:01N 59°36' E 023°34'611.5
2017-Jul-20 02:30N 59°34' E 023°23'611.7
2017-Jul-20 02:00N 59°32' E 023°12'611.6
2017-Jul-20 01:30N 59°31' E 023°01'611.7
2017-Jul-20 01:00N 59°29' E 022°50'611.4
2017-Jul-20 00:31N 59°27' E 022°40'611.2
2017-Jul-20 00:01N 59°24' E 022°30'611.3
2017-Jul-19 23:31N 59°21' E 022°21'611.3
2017-Jul-19 23:01N 59°17' E 022°13'611.4
2017-Jul-19 22:31N 59°13' E 022°04'611.7
2017-Jul-19 22:01N 59°10' E 021°55'611.5
2017-Jul-19 21:31N 59°06' E 021°47'611.7
2017-Jul-19 21:00N 59°01' E 021°39'611.7
2017-Jul-19 20:28N 58°56' E 021°35'511.3
2017-Jul-19 20:00N 58°51' E 021°32'  
2017-Jul-17 15:45N 58°20' E 021°17'2512.0
2017-Jul-17 13:39N 58°45' E 021°26'611.8
2017-Jul-17 13:08N 58°51' E 021°28'311.8
2017-Jul-17 12:55N 58°53' E 021°30'512.0
2017-Jul-17 12:30N 58°58' E 021°31'612.0
2017-Jul-17 12:00N 59°04' E 021°34'612.0
2017-Jul-17 11:30N 59°09' E 021°41'612.0
2017-Jul-17 11:00N 59°13' E 021°50'611.8
2017-Jul-17 10:30N 59°17' E 021°59'611.7
2017-Jul-17 10:00N 59°20' E 022°07'611.7
2017-Jul-17 09:30N 59°24' E 022°16'611.9
2017-Jul-17 09:00N 59°28' E 022°26'611.8
2017-Jul-17 08:30N 59°30' E 022°36'612.0
2017-Jul-17 08:00N 59°33' E 022°47'612.2
2017-Jul-17 07:30N 59°34' E 022°58'612.1
2017-Jul-17 07:01N 59°36' E 023°10'611.9
2017-Jul-17 06:30N 59°38' E 023°21'611.8
2017-Jul-17 06:01N 59°40' E 023°32'612.0
2017-Jul-17 05:30N 59°42' E 023°44'612.0
2017-Jul-17 05:00N 59°43' E 023°55'612.1
2017-Jul-17 04:30N 59°45' E 024°06'611.8
2017-Jul-17 04:00N 59°47' E 024°18'611.8
2017-Jul-17 03:30N 59°48' E 024°29'611.8
2017-Jul-17 03:00N 59°50' E 024°40'611.7
2017-Jul-17 02:30N 59°51' E 024°52'611.8
2017-Jul-17 02:00N 59°52' E 025°03'611.7
2017-Jul-17 01:30N 59°54' E 025°14'611.8
2017-Jul-17 01:00N 59°57' E 025°24'611.4
2017-Jul-17 00:30N 60°01' E 025°33'611.5
2017-Jul-17 00:01N 60°07' E 025°35'815.3
2017-Jul-16 23:30N 60°14' E 025°35'4 7.5
2017-Jul-16 23:00N 60°18' E 025°33'0 0.0
2017-Jul-16 22:30N 60°18' E 025°33'0 0.0
2017-Jul-16 22:00N 60°18' E 025°33'0 0.0
2017-Jul-16 21:30N 60°18' E 025°33'0 0.0
2017-Jul-16 20:58N 60°18' E 025°33'0 0.0
2017-Jul-16 20:29N 60°18' E 025°33'0 0.0
2017-Jul-16 19:59N 60°18' E 025°33'0 0.0
2017-Jul-16 19:30N 60°18' E 025°33'0 0.0
2017-Jul-16 18:56N 60°18' E 025°33'0 0.0
2017-Jul-16 18:29N 60°18' E 025°33'0 0.0
2017-Jul-16 17:59N 60°18' E 025°33'0 0.0
2017-Jul-16 17:29N 60°18' E 025°33'0 0.0
2017-Jul-16 16:59N 60°18' E 025°33'0 0.0
2017-Jul-16 16:29N 60°18' E 025°33'0 0.0
2017-Jul-16 15:59N 60°18' E 025°33'0 0.0
2017-Jul-16 15:30N 60°18' E 025°33'0 0.0
2017-Jul-16 14:59N 60°18' E 025°33'0 0.0
2017-Jul-16 14:30N 60°18' E 025°33'0 0.0
2017-Jul-16 13:58N 60°18' E 025°33'0 0.0
2017-Jul-16 13:29N 60°18' E 025°33'0 0.0
2017-Jul-16 12:58N 60°18' E 025°33'0 0.0
2017-Jul-16 12:27N 60°18' E 025°33'0 0.0
2017-Jul-16 12:00N 60°18' E 025°33'0 0.0
2017-Jul-16 11:28N 60°18' E 025°33'0 0.0
2017-Jul-16 11:00N 60°18' E 025°33'0 0.0
2017-Jul-16 10:30N 60°18' E 025°33'0 0.0
2017-Jul-16 10:00N 60°18' E 025°33'0 0.0
2017-Jul-16 09:26N 60°18' E 025°33'0 0.0
2017-Jul-16 08:58N 60°18' E 025°33'0 0.0
2017-Jul-16 08:29N 60°18' E 025°33'0 0.0
2017-Jul-16 08:00N 60°18' E 025°33'0 0.0
2017-Jul-16 07:26N 60°18' E 025°33'0 0.0
2017-Jul-16 06:59N 60°18' E 025°33'1 1.1
2017-Jul-16 06:31N 60°18' E 025°33'713.5
2017-Jul-16 06:00N 60°11' E 025°37'713.4
2017-Jul-16 05:30N 60°05' E 025°36'2 3.4
2017-Jul-16 05:01N 60°06' E 025°35'714.6
2017-Jul-16 04:30N 60°14' E 025°35'4 8.0
2017-Jul-16 04:01N 60°18' E 025°33'1 1.5
2017-Jul-16 03:31N 60°18' E 025°33'0 0.0
2017-Jul-16 02:59N 60°18' E 025°33'0 0.0
2017-Jul-16 02:30N 60°18' E 025°33'0 0.0
2017-Jul-16 02:00N 60°18' E 025°33'0 0.0
2017-Jul-16 01:29N 60°18' E 025°33'0 0.0
2017-Jul-16 00:59N 60°18' E 025°33'0 0.0
2017-Jul-16 00:27N 60°18' E 025°33'0 0.0
2017-Jul-16 00:00N 60°18' E 025°33'0 0.0
2017-Jul-15 23:30N 60°18' E 025°33'0 0.0
2017-Jul-15 23:00N 60°18' E 025°33'0 0.0
2017-Jul-15 22:29N 60°18' E 025°33'0 0.0
2017-Jul-15 21:58N 60°18' E 025°33'0 0.0
2017-Jul-15 21:27N 60°18' E 025°33'0 0.0
2017-Jul-15 20:58N 60°18' E 025°33'0 0.0
2017-Jul-15 20:29N 60°18' E 025°33'0 0.0
2017-Jul-15 19:56N 60°18' E 025°33'0 0.0
2017-Jul-15 19:30N 60°18' E 025°33'0 0.0
2017-Jul-15 18:58N 60°18' E 025°33'1 2.9
2017-Jul-15 18:31N 60°17' E 025°33'815.2
2017-Jul-15 18:00N 60°10' E 025°39'815.2
2017-Jul-15 17:30N 60°03' E 025°34'713.1
2017-Jul-15 17:00N 59°57' E 025°27'713.8
2017-Jul-15 16:30N 59°52' E 025°17'713.3
2017-Jul-15 16:00N 59°49' E 025°06'713.6
2017-Jul-15 15:30N 59°47' E 024°53'713.8
2017-Jul-15 15:01N 59°45' E 024°40'1413.9
2017-Jul-15 14:00N 59°42' E 024°13'713.8
2017-Jul-15 13:31N 59°40' E 024°00'714.0
2017-Jul-15 13:01N 59°38' E 023°47'713.9
2017-Jul-15 12:31N 59°36' E 023°34'713.8
2017-Jul-15 12:00N 59°33' E 023°21'713.8
2017-Jul-15 11:31N 59°31' E 023°08'713.9
2017-Jul-15 11:00N 59°29' E 022°55'713.9
2017-Jul-15 10:31N 59°27' E 022°42'713.9
2017-Jul-15 10:00N 59°24' E 022°29'612.9
2017-Jul-15 09:30N 59°24' E 022°17'713.9
2017-Jul-15 09:00N 59°27' E 022°04'713.8
2017-Jul-15 08:31N 59°30' E 021°52'714.0
2017-Jul-15 08:01N 59°32' E 021°39'713.8
2017-Jul-15 07:31N 59°37' E 021°28'713.4
2017-Jul-15 07:01N 59°42' E 021°21'713.7
2017-Jul-15 06:30N 59°49' E 021°21'815.1
2017-Jul-15 06:00N 59°54' E 021°33'714.5
2017-Jul-15 05:31N 59°60' E 021°42'815.1
2017-Jul-15 05:01N 60°07' E 021°41'713.1
2017-Jul-15 04:31N 60°13' E 021°43'714.9
2017-Jul-15 04:00N 60°16' E 021°57'714.4
2017-Jul-15 03:31N 60°22' E 022°06'510.2
2017-Jul-15 03:00N 60°27' E 022°04'0 0.0
2017-Jul-15 02:28N 60°27' E 022°04'0 0.0
2017-Jul-15 01:58N 60°27' E 022°04'0 0.0
2017-Jul-15 01:28N 60°27' E 022°04'0 0.0
2017-Jul-15 00:58N 60°27' E 022°04'0 0.0
2017-Jul-15 00:28N 60°27' E 022°04'0 0.0
2017-Jul-14 23:58N 60°27' E 022°04'0 0.0
2017-Jul-14 23:28N 60°27' E 022°04'0 0.0
2017-Jul-14 22:58N 60°27' E 022°04'0 0.0
2017-Jul-14 22:28N 60°27' E 022°04'0 0.0
2017-Jul-14 21:58N 60°27' E 022°04'0 0.0
2017-Jul-14 21:28N 60°27' E 022°04'0 0.0
2017-Jul-14 20:58N 60°27' E 022°04'0 0.0
2017-Jul-14 20:28N 60°27' E 022°04'0 0.0
2017-Jul-14 19:56N 60°27' E 022°04'0 0.0
2017-Jul-14 19:26N 60°27' E 022°04'0 0.0
2017-Jul-14 18:59N 60°27' E 022°04'0 0.0
2017-Jul-14 18:30N 60°27' E 022°04'0 0.0
2017-Jul-14 18:00N 60°27' E 022°04'0 0.0
2017-Jul-14 17:29N 60°27' E 022°04'0 0.0
2017-Jul-14 17:00N 60°27' E 022°04'0 0.0
2017-Jul-14 16:29N 60°27' E 022°04'0 0.0
2017-Jul-14 15:55N 60°27' E 022°04'0 0.0
2017-Jul-14 15:29N 60°27' E 022°04'0 0.0
2017-Jul-14 14:55N 60°27' E 022°04'0 0.0
2017-Jul-14 14:28N 60°27' E 022°04'0 0.0
2017-Jul-14 13:58N 60°27' E 022°04'0 0.0
2017-Jul-14 13:28N 60°27' E 022°04'0 0.0
2017-Jul-14 12:58N 60°27' E 022°04'0 0.0
2017-Jul-14 12:29N 60°27' E 022°04'0 0.0
2017-Jul-14 11:58N 60°27' E 022°04'0 0.0
2017-Jul-14 11:28N 60°27' E 022°04'0 0.0
2017-Jul-14 10:59N 60°27' E 022°04'0 0.0
2017-Jul-14 10:28N 60°27' E 022°04'0 0.0
2017-Jul-14 09:52N 60°27' E 022°04'0 0.1
2017-Jul-14 09:30N 60°27' E 022°04'0 1.0
2017-Jul-14 09:00N 60°27' E 022°05'5 9.4
2017-Jul-14 08:31N 60°22' E 022°06'713.7
2017-Jul-14 08:01N 60°16' E 021°58'714.8
2017-Jul-14 07:30N 60°14' E 021°44'611.0
2017-Jul-14 07:00N 60°09' E 021°41'713.5
2017-Jul-14 06:31N 60°02' E 021°41'713.4
2017-Jul-14 06:00N 59°55' E 021°38'714.6
2017-Jul-14 05:30N 59°51' E 021°26'612.8
2017-Jul-14 05:00N 59°46' E 021°21'5 9.8
2017-Jul-14 04:30N 59°41' E 021°19'5 9.5
2017-Jul-14 04:01N 59°37' E 021°13'510.3
2017-Jul-14 03:31N 59°34' E 021°04'5 9.9
2017-Jul-14 03:00N 59°33' E 020°55'510.3
2017-Jul-14 02:30N 59°33' E 020°45'4 8.9
2017-Jul-14 02:00N 59°29' E 020°42'4 8.0
2017-Jul-14 01:30N 59°26' E 020°36'510.6
2017-Jul-14 01:00N 59°27' E 020°26'4 8.8
2017-Jul-14 00:31N 59°27' E 020°17'5 9.7
2017-Jul-14 00:00N 59°22' E 020°17'510.3
2017-Jul-13 23:30N 59°22' E 020°07'510.3
2017-Jul-13 23:00N 59°23' E 019°57'5 9.1
2017-Jul-13 22:30N 59°22' E 019°48'5 9.9
2017-Jul-13 22:00N 59°17' E 019°45'5 9.6
2017-Jul-13 21:30N 59°17' E 019°36'5 9.9
2017-Jul-13 21:00N 59°17' E 019°26'510.2
2017-Jul-13 20:31N 59°15' E 019°17'4 8.7
2017-Jul-13 20:00N 59°11' E 019°12'3 2.7
2017-Jul-13 18:48N 59°12' E 019°06'0 0.6
2017-Jul-13 18:30N 59°11' E 019°06'0 0.7
2017-Jul-13 17:54N 59°11' E 019°07'0 0.8
2017-Jul-13 17:27N 59°12' E 019°08'0 0.6
2017-Jul-13 16:48N 59°12' E 019°08'0 0.6
2017-Jul-13 16:21N 59°12' E 019°08'0 0.7
2017-Jul-13 15:48N 59°12' E 019°08'1 0.8
2017-Jul-13 14:42N 59°13' E 019°08'0 0.9
2017-Jul-13 14:21N 59°14' E 019°08'0 0.6
2017-Jul-13 13:56N 59°14' E 019°08'2 4.8
2017-Jul-13 13:30N 59°14' E 019°04'6 9.7
2017-Jul-13 12:51N 59°18' E 018°53'511.4
2017-Jul-13 12:25N 59°21' E 018°46'811.1
2017-Jul-13 11:44N 59°24' E 018°32'312.6
2017-Jul-13 11:30N 59°26' E 018°29'3 5.2
2017-Jul-13 11:00N 59°24' E 018°27'3 6.5
2017-Jul-13 10:30N 59°22' E 018°22'611.6
2017-Jul-13 10:00N 59°20' E 018°11'1 2.4
2017-Jul-13 09:26N 59°21' E 018°08'0 0.0
2017-Jul-13 08:56N 59°21' E 018°08'0 0.0
2017-Jul-13 08:26N 59°21' E 018°08'0 0.0
2017-Jul-13 07:44N 59°21' E 018°08'0 0.0
2017-Jul-13 07:26N 59°21' E 018°08'0 0.0
2017-Jul-13 06:56N 59°21' E 018°08'0 0.0
2017-Jul-13 06:26N 59°21' E 018°08'0 0.0
2017-Jul-13 05:55N 59°21' E 018°08'0 0.0
2017-Jul-13 05:25N 59°21' E 018°08'0 0.0
2017-Jul-13 04:55N 59°21' E 018°08'0 0.0
2017-Jul-13 04:25N 59°21' E 018°08'0 0.0
2017-Jul-13 03:55N 59°21' E 018°08'0 0.0
2017-Jul-13 03:25N 59°21' E 018°08'0 0.0
2017-Jul-13 02:55N 59°21' E 018°08'0 0.0
2017-Jul-13 02:25N 59°21' E 018°08'0 0.0
2017-Jul-13 01:55N 59°21' E 018°08'0 0.0
2017-Jul-13 01:25N 59°21' E 018°08'0 0.0
2017-Jul-13 00:55N 59°21' E 018°08'0 0.0
2017-Jul-13 00:25N 59°21' E 018°08'0 0.0
2017-Jul-12 23:55N 59°21' E 018°08'0 0.0
2017-Jul-12 23:25N 59°21' E 018°08'0 0.0
2017-Jul-12 22:55N 59°21' E 018°08'0 0.0
2017-Jul-12 22:25N 59°21' E 018°08'0 0.0
2017-Jul-12 21:55N 59°21' E 018°08'0 0.0
2017-Jul-12 21:19N 59°21' E 018°08'0 0.0
2017-Jul-12 20:55N 59°21' E 018°08'0 0.0
2017-Jul-12 20:25N 59°21' E 018°08'0 0.0
2017-Jul-12 19:55N 59°21' E 018°08'0 0.0
2017-Jul-12 19:25N 59°21' E 018°08'0 0.0
2017-Jul-12 18:49N 59°21' E 018°08'0 0.0
2017-Jul-12 18:25N 59°21' E 018°08'0 0.0
2017-Jul-12 17:49N 59°21' E 018°08'0 0.0
2017-Jul-12 17:25N 59°21' E 018°08'0 0.0
2017-Jul-12 16:55N 59°21' E 018°08'0 0.0
2017-Jul-12 16:25N 59°21' E 018°08'0 0.0
2017-Jul-12 15:49N 59°21' E 018°08'0 0.1
2017-Jul-12 15:25N 59°21' E 018°08'0 0.0
2017-Jul-12 14:43N 59°21' E 018°08'0 0.0
2017-Jul-12 13:49N 59°21' E 018°08'0 0.0
2017-Jul-12 13:25N 59°21' E 018°08'0 0.0
2017-Jul-12 12:55N 59°21' E 018°08'0 0.0
2017-Jul-12 12:25N 59°21' E 018°08'0 0.0
2017-Jul-12 11:55N 59°21' E 018°08'0 0.0
2017-Jul-12 11:25N 59°21' E 018°08'0 0.0
2017-Jul-12 10:55N 59°21' E 018°08'0 0.0
2017-Jul-12 10:25N 59°21' E 018°08'0 0.0
2017-Jul-12 09:55N 59°21' E 018°08'0 0.0
2017-Jul-12 09:21N 59°21' E 018°08'0 0.1
2017-Jul-12 09:00N 59°21' E 018°08'2 4.3
2017-Jul-12 08:31N 59°20' E 018°12'  

Dump ship's entire track history